Pansy, Arkansas
Current Conditions -  °F | °C
As of 6:53 AM on Wednesday 22 Oct 2014 (Local Time) from KPBF Reporting Station
Clear Clear  
Wind Chill: 49°   Ceiling: Unl
Heat Index: 49°   Visibility: 10mi
Dew Point: 46°   Wind: 3mph
Humidity: 90%   Direction: 360°N
Pressure: 30.17"   Gusts: NA
Location:  33.947°N, 92.1633°W
Report Text: KPBF 221153Z AUTO 36003KT 10SM CLR 09/08 A3017 RMK AO2 SLP216 T00940078 10128 20089 53019
Loading
Personal Weather Stations






























Interactive Weather Map
Tropical Storm Tracking
New forecast layout! Learn more

10-Day Weather Forecast

Advertisements
Track Severe Weather on mobile